Insider Buying

 
Symbol Name Keyword
Filings for:
Note: This page automatically refreshes every three minutes.
  Symbol Owner Relationship Date Cost # Shares Value($) Total Shares Filing
Y! JMP Jolson Joseph A CEO Apr 18, 2019 $3.98 7,506 29,839 5,151,162 Apr 18, 2019, 07:28 PM
Y! JMP Jolson Joseph A CEO Apr 17, 2019 $4.00 7,500 30,000 5,143,656 Apr 18, 2019, 07:28 PM
Y! JMP Jolson Joseph A CEO Apr 16, 2019 $3.98 1,300 5,175 5,136,156 Apr 18, 2019, 07:28 PM
Y! LAWS KING LUTHER CAPITAL MANAGEMENT CORP 10% Owner Apr 17, 2019 $32.00 37,707 1,206,624 4,338,956 Apr 18, 2019, 07:15 PM
Y! CAG Arora Anil Director Apr 16, 2019 $30.06 1,600 48,096 2,878 Apr 18, 2019, 05:58 PM
Y! ABEO Van Duyne Richard B Director Apr 08, 2019 $7.71 6,000 46,260 6,000 Apr 18, 2019, 05:57 PM
Y! CAG GREGOR JOIE A Director Apr 16, 2019 $29.99 10,000 299,865 64,650 Apr 18, 2019, 05:57 PM
Y! FARM Levin Easterly Partners LLC 10% Owner Apr 16, 2019 $19.80 2,145 42,463 2,387,214 Apr 18, 2019, 04:26 PM
Y! ZSAN WALKER JOHN PETER President & CEO Apr 11, 2019 $3.50 100,000 350,000 280,228 Apr 18, 2019, 04:25 PM
Y! QCRH Ziegler Marie Z. Director Apr 18, 2019 $35.00 186 6,510 25,224 Apr 18, 2019, 04:24 PM
Y! MSO II HUBBARD ROBERT GLENN Director Apr 16, 2019 $100.00 1,000 100,000 1,000 Apr 18, 2019, 04:23 PM
Y! MSO II Rieder Richard M Portfolio Manager Apr 17, 2019 $100.00 20,000 2,000,000 20,000 Apr 18, 2019, 04:21 PM
Y! MSO II Redmond Ronald Portfolio Manager Apr 17, 2019 $100.00 2,500 250,000 2,500 Apr 18, 2019, 04:19 PM
Y! MSO II ROBARDS KAREN P Director Apr 16, 2019 $100.00 100 10,000 100 Apr 18, 2019, 04:19 PM
Y! MSO II KESTER W CARL Director Apr 16, 2019 $100.00 100 10,000 100 Apr 18, 2019, 04:18 PM
Y! SQBG PRESCOTT GROUP CAPITAL MANAGEMENT, L.L.C. 10% Owner Apr 17, 2019 $0.93 329,712 306,389 9,356,306 Apr 18, 2019, 04:18 PM
Y! JPM HOBSON MELLODY L Director Apr 18, 2019 $114.26 1,700 194,242 7,485 Apr 18, 2019, 04:17 PM
Y! RCKT RTW INVESTMENTS, LP Director Apr 16, 2019 $17.50 550,005 9,625,088 17,057,324 Apr 18, 2019, 04:14 PM
Y! STLY Hale Partnership Capital Management, LLC 10% Owner Apr 16, 2019 $0.52 27,000 14,040 208,100 Apr 18, 2019, 03:23 PM
Y! STLY Hale Partnership Capital Management, LLC 10% Owner Apr 16, 2019 $0.52 50,000 26,000 132,055 Apr 18, 2019, 03:23 PM
Y! STLY Hale Partnership Capital Management, LLC 10% Owner Apr 16, 2019 $0.52 123,532 64,237 2,105,528 Apr 18, 2019, 03:23 PM
Y! ANVV Kasa Ali CEO/Founder Apr 11, 2019 $3961.00 3,961,000 15,689,521,000 15,792,007 Apr 18, 2019, 02:49 PM
Y! TPL Horizon Kinetics LLC 10% Owner Apr 17, 2019 $887.23 42 37,264 203,830 Apr 18, 2019, 11:39 AM
Y! RVP SHAW THOMAS J President and CEO Apr 17, 2019 $0.66 10,500 6,899 14,113,778 Apr 18, 2019, 11:27 AM
Y! VVR Saba Capital Management, L.P. 10% Owner Apr 16, 2019 $4.29 30,633 131,416 20,353,948 Apr 18, 2019, 10:30 AM
Y! VVR Saba Capital Management, L.P. 10% Owner Apr 17, 2019 $4.30 50,421 216,810 20,404,369 Apr 18, 2019, 10:30 AM
Y! HIX Saba Capital Management, L.P. 10% Owner Apr 17, 2019 $6.59 21,487 141,599 10,659,063 Apr 18, 2019, 10:25 AM
Y! HIX Saba Capital Management, L.P. 10% Owner Apr 16, 2019 $6.64 11,866 78,790 10,637,576 Apr 18, 2019, 10:25 AM
Y! EHI Saba Capital Management, L.P. 10% Owner Apr 17, 2019 $9.59 15,022 144,061 7,225,180 Apr 18, 2019, 10:21 AM
Y! EHI Saba Capital Management, L.P. 10% Owner Apr 16, 2019 $9.68 5,371 51,991 7,210,158 Apr 18, 2019, 10:21 AM
Y! FRAF Carmack Karen K svp Apr 17, 2019 $35.98 1 36 861 Apr 18, 2019, 09:48 AM
Y! FRAF Cekovich Ronald L svp Apr 17, 2019 $35.98 3 108 6,701 Apr 18, 2019, 09:46 AM
Y! SCYX Taglietti Marco Chief Executive Officer Apr 17, 2019 $1.63 25,000 40,750 506,000 Apr 18, 2019, 08:39 AM
Y! OPK FROST PHILLIP MD ET AL CEO & Chairman Apr 17, 2019 $2.42 50,000 120,953 25,805,177 Apr 18, 2019, 07:17 AM
Y! KMI KINDER RICHARD D Executive Chairman Apr 17, 2019 $19.75 175,000 3,456,040 239,397,332 Apr 17, 2019, 09:18 PM
Y! AMRS DOERR L JOHN Director Apr 15, 2019 $2.87 6,732,369 19,321,898 14,585,144 Apr 17, 2019, 08:18 PM
Y! MACK 22NW, LP 10% Owner Apr 17, 2019 $6.00 16,200 97,156 1,241,896 Apr 17, 2019, 08:15 PM
Y! MACK 22NW, LP 10% Owner Apr 16, 2019 $5.95 20,450 121,637 1,225,696 Apr 17, 2019, 08:15 PM
Y! MACK 22NW, LP 10% Owner Apr 15, 2019 $5.73 30,110 172,530 1,205,246 Apr 17, 2019, 08:15 PM
Y! SAFE ISTAR INC. 10% Owner Apr 17, 2019 $22.69 2,700 61,263 7,798,018 Apr 17, 2019, 08:02 PM
Y! SAFE ISTAR INC. 10% Owner Apr 16, 2019 $23.12 2,800 64,747 7,798,918 Apr 17, 2019, 08:02 PM
Y! SAFE ISTAR INC. 10% Owner Apr 15, 2019 $23.14 2,800 64,784 7,798,018 Apr 17, 2019, 08:02 PM
Y! BTN Fundamental Global Investors, LLC Director Apr 17, 2019 $2.07 3,287 6,807 1,176,418 Apr 17, 2019, 07:43 PM
Y! BTN Fundamental Global Investors, LLC Director Apr 15, 2019 $2.02 3,287 6,633 1,169,844 Apr 17, 2019, 07:43 PM
Y! BTN Fundamental Global Investors, LLC Director Apr 17, 2019 $2.07 3,287 6,807 1,161,324 Apr 17, 2019, 07:43 PM
Y! BTN Fundamental Global Investors, LLC Director Apr 15, 2019 $2.02 3,287 6,633 1,154,750 Apr 17, 2019, 07:43 PM
Y! BTN Fundamental Global Investors, LLC Director Apr 16, 2019 $2.06 3,287 6,781 1,173,131 Apr 17, 2019, 07:43 PM
Y! BTN Fundamental Global Investors, LLC Director Apr 16, 2019 $2.06 3,287 6,781 1,158,037 Apr 17, 2019, 07:43 PM
Y! HJLI BERMAN ROBERT ANDREW Chief Executive Officer Mar 12, 2019 $1.36 18,382 25,000 18,382 Apr 17, 2019, 06:47 PM
Y! TREC Quarles Patrick D. President and CEO Apr 16, 2019 $9.59 2,584 24,769 29,594 Apr 17, 2019, 05:22 PM
Y! TREC Quarles Patrick D. President and CEO Apr 15, 2019 $9.32 7,010 65,312 27,010 Apr 17, 2019, 05:22 PM
Y! TREC Quarles Patrick D. President and CEO Apr 17, 2019 $9.71 406 3,941 30,000 Apr 17, 2019, 05:22 PM
Y! JPM HOBSON MELLODY L Director Apr 16, 2019 $111.02 18,000 1,998,443 75,355 Apr 17, 2019, 05:15 PM
Y! CHAP Strategic Value Partners, LLC 10% Owner Apr 15, 2019 $5.73 1,092,553 6,257,180 5,513,798 Apr 17, 2019, 04:52 PM
Y! GABC Ramsey Chris A Director Apr 15, 2019 $29.68 47 1,395 19,392 Apr 17, 2019, 04:42 PM
Y! GABC KLEM U BUTCH Director Apr 15, 2019 $29.68 118 3,502 175,971 Apr 17, 2019, 04:33 PM
Y! GABC SEGER THOMAS W Director Apr 15, 2019 $29.68 118 3,502 341,302 Apr 17, 2019, 04:24 PM
Y! TRWH Chatham Asset Management, LLC 10% Owner Apr 16, 2019 $33.12 6,000 198,720 5,982,088 Apr 17, 2019, 04:21 PM
Y! TRWH Chatham Asset Management, LLC 10% Owner Apr 15, 2019 $33.23 2,169 72,076 5,976,088 Apr 17, 2019, 04:21 PM
Y! THMG Jones Eric T CEO Apr 16, 2019 $0.09 10,000 900 3,139,043 Apr 17, 2019, 04:17 PM
Y! NJMC Hayes Monique D Corporate Secretary Apr 15, 2019 $0.15 20,000 3,000 164,800 Apr 17, 2019, 04:09 PM
Y! PAOS Lamb William A III Director Apr 16, 2019 $60.00 1,000 60,000 2,125 Apr 17, 2019, 03:02 PM
Y! GABC Snowden Raymond Ward Director Apr 15, 2019 $29.68 71 2,107 29,847 Apr 17, 2019, 02:27 PM
Y! GABC KELLY JASON M Director Apr 15, 2019 $29.68 47 1,395 521 Apr 17, 2019, 02:22 PM
Y! KMI KINDER RICHARD D Executive Chairman Apr 16, 2019 $19.75 152,639 3,014,300 239,222,332 Apr 17, 2019, 01:55 PM
Y! GABC Bawel Zachary W Director Apr 15, 2019 $29.68 71 2,107 3,371 Apr 17, 2019, 01:34 PM
Y! CPMD Herick Gary J Chief Financial Officer Jan 02, 2019 $2.00 600,000 1,200,000 600,000 Apr 17, 2019, 01:24 PM
Y! LIVC Vahabzadeh Amir Director Apr 15, 2019 $0.07 50,000 3,500 4,154,400 Apr 17, 2019, 01:19 PM
Y! RVP SHAW THOMAS J President and CEO Apr 16, 2019 $0.67 15,000 10,065 14,103,278 Apr 17, 2019, 01:03 PM
Y! TPL Horizon Kinetics LLC 10% Owner Apr 16, 2019 $898.49 42 37,737 203,788 Apr 17, 2019, 10:58 AM
Y! EVBN St. George Mark G. President, The Evans Agency Apr 15, 2019 $35.84 7 251 517 Apr 17, 2019, 10:32 AM
Y! CNBKA EVANGELISTA PAUL A Executive Vice President Apr 16, 2019 $87.67 2 175 5,874 Apr 17, 2019, 09:11 AM
Y! OPK FROST PHILLIP MD ET AL CEO & Chairman Apr 16, 2019 $2.50 10,000 24,997 25,755,177 Apr 17, 2019, 07:09 AM
Y! BASA Barbera Michael Vito Director Apr 16, 2019 $0.43 20,000 8,550 3,420,000 Apr 16, 2019, 06:38 PM
Y! IEA Layman Andrew Dean Chief Financial Officer Apr 15, 2019 $4.90 1,000 4,900 53,720 Apr 16, 2019, 05:20 PM
Y! IEA Roehm John Paul President, CEO and Director Apr 15, 2019 $4.90 1,000 4,900 94,125 Apr 16, 2019, 05:16 PM
Y! FARM Levin Easterly Partners LLC 10% Owner Apr 15, 2019 $19.73 97,879 1,930,851 2,370,591 Apr 16, 2019, 04:39 PM
Y! FARM Levin Easterly Partners LLC 10% Owner Apr 12, 2019 $19.85 464,694 9,223,182 2,385,029 Apr 16, 2019, 04:39 PM
Y! VVV Meixelsperger Mary E Chief Financial Officer Apr 15, 2019 $18.71 7,500 140,325 38,797 Apr 16, 2019, 04:20 PM
Y! REZI Nefkens Michael G President and CEO Apr 15, 2019 $20.22 494 9,989 11,392 Apr 16, 2019, 04:15 PM
Y! REZI Aarnes Robert B President, ADI Apr 12, 2019 $20.00 20 400 6,401 Apr 16, 2019, 04:14 PM
Y! OTEL SOCHET IRA 10% Owner Apr 15, 2019 $17.30 6,518 112,761 949,824 Apr 16, 2019, 04:09 PM
Y! MNR LANDY MICHAEL P President and CEO Apr 15, 2019 $12.84 156 2,003 417,290 Apr 16, 2019, 03:57 PM
Y! HCI Politis Gregory Director Apr 12, 2019 $40.90 4,000 163,620 206,000 Apr 16, 2019, 03:41 PM
Y! MNR HERSTIK NEAL Director Apr 15, 2019 $12.84 779 10,002 20,695 Apr 16, 2019, 03:24 PM
Y! MNR Miller Kevin S. Chief Financial Officer Apr 15, 2019 $12.84 156 2,003 47,157 Apr 16, 2019, 02:44 PM
Y! NICK MALSON KELLY M CFO Feb 15, 2019 $10.43 1,803 18,799 29,537 Apr 16, 2019, 02:43 PM
Y! YORW Snyder Mark S VP- Engineering Apr 16, 2019 $32.32 24 776 1,784 Apr 16, 2019, 02:36 PM
Y! YORW Snyder Mark S VP- Engineering Apr 15, 2019 $33.91 9 305 1,760 Apr 16, 2019, 02:36 PM
Y! YORW Poff Matthew E Chief Financial Officer Apr 16, 2019 $32.32 4 129 494 Apr 16, 2019, 02:29 PM
Y! YORW Poff Matthew E Chief Financial Officer Apr 15, 2019 $33.91 2 68 490 Apr 16, 2019, 02:29 PM
Y! YORW Hand Joseph Thomas Chief Operating Officer Apr 15, 2019 $33.91 1 34 280 Apr 16, 2019, 02:22 PM
Y! YORW Hand Joseph Thomas Chief Operating Officer Apr 15, 2019 $33.91 1 34 129 Apr 16, 2019, 02:22 PM
Y! YORW Hand Joseph Thomas Chief Operating Officer Apr 15, 2019 $33.91 1 34 257 Apr 16, 2019, 02:22 PM
Y! YORW Hand Joseph Thomas Chief Operating Officer Apr 16, 2019 $32.32 141 4,558 13,081 Apr 16, 2019, 02:22 PM
Y! YORW Hand Joseph Thomas Chief Operating Officer Apr 15, 2019 $33.91 66 2,238 12,941 Apr 16, 2019, 02:22 PM
Y! YORW Colon Natalee VP- Human Resources Apr 16, 2019 $32.32 16 517 453 Apr 16, 2019, 02:07 PM
Y! YORW Colon Natalee VP- Human Resources Apr 15, 2019 $33.91 2 68 437 Apr 16, 2019, 02:07 PM
Y! YORW BRACEY VERNON L VP- Customer Service Apr 15, 2019 $33.91 3 102 563 Apr 16, 2019, 01:53 PM
Y! YORW BRACEY VERNON L VP- Customer Service Apr 16, 2019 $32.32 16 517 579 Apr 16, 2019, 01:53 PM
Next : Last
 
Symbol Name Keyword
Filings for:
Note: This page automatically refreshes every three minutes.
Desktop Version
Symbol Owner Relationship Date Value($)
JMP Jolson Joseph A CEO Apr 18, 2019 29,839
JMP Jolson Joseph A CEO Apr 17, 2019 30,000
JMP Jolson Joseph A CEO Apr 16, 2019 5,175
LAWS KING LUTHER CAPITAL MANAGEMENT CORP 10% Owner Apr 17, 2019 1,206,624
CAG Arora Anil Director Apr 16, 2019 48,096
ABEO Van Duyne Richard B Director Apr 08, 2019 46,260
CAG GREGOR JOIE A Director Apr 16, 2019 299,865
FARM Levin Easterly Partners LLC 10% Owner Apr 16, 2019 42,463
ZSAN WALKER JOHN PETER President & CEO Apr 11, 2019 350,000
QCRH Ziegler Marie Z. Director Apr 18, 2019 6,510
MSO II HUBBARD ROBERT GLENN Director Apr 16, 2019 100,000
MSO II Rieder Richard M Portfolio Manager Apr 17, 2019 2,000,000
MSO II Redmond Ronald Portfolio Manager Apr 17, 2019 250,000
MSO II ROBARDS KAREN P Director Apr 16, 2019 10,000
MSO II KESTER W CARL Director Apr 16, 2019 10,000
SQBG PRESCOTT GROUP CAPITAL MANAGEMENT, L.L.C. 10% Owner Apr 17, 2019 306,389
JPM HOBSON MELLODY L Director Apr 18, 2019 194,242
RCKT RTW INVESTMENTS, LP Director Apr 16, 2019 9,625,088
STLY Hale Partnership Capital Management, LLC 10% Owner Apr 16, 2019 14,040
STLY Hale Partnership Capital Management, LLC 10% Owner Apr 16, 2019 26,000
STLY Hale Partnership Capital Management, LLC 10% Owner Apr 16, 2019 64,237
ANVV Kasa Ali CEO/Founder Apr 11, 2019 15,689,521,000
TPL Horizon Kinetics LLC 10% Owner Apr 17, 2019 37,264
RVP SHAW THOMAS J President and CEO Apr 17, 2019 6,899
VVR Saba Capital Management, L.P. 10% Owner Apr 16, 2019 131,416
VVR Saba Capital Management, L.P. 10% Owner Apr 17, 2019 216,810
HIX Saba Capital Management, L.P. 10% Owner Apr 17, 2019 141,599
HIX Saba Capital Management, L.P. 10% Owner Apr 16, 2019 78,790
EHI Saba Capital Management, L.P. 10% Owner Apr 17, 2019 144,061
EHI Saba Capital Management, L.P. 10% Owner Apr 16, 2019 51,991
FRAF Carmack Karen K svp Apr 17, 2019 36
FRAF Cekovich Ronald L svp Apr 17, 2019 108
SCYX Taglietti Marco Chief Executive Officer Apr 17, 2019 40,750
OPK FROST PHILLIP MD ET AL CEO & Chairman Apr 17, 2019 120,953
KMI KINDER RICHARD D Executive Chairman Apr 17, 2019 3,456,040
AMRS DOERR L JOHN Director Apr 15, 2019 19,321,898
MACK 22NW, LP 10% Owner Apr 17, 2019 97,156
MACK 22NW, LP 10% Owner Apr 16, 2019 121,637
MACK 22NW, LP 10% Owner Apr 15, 2019 172,530
SAFE ISTAR INC. 10% Owner Apr 17, 2019 61,263
SAFE ISTAR INC. 10% Owner Apr 16, 2019 64,747
SAFE ISTAR INC. 10% Owner Apr 15, 2019 64,784
BTN Fundamental Global Investors, LLC Director Apr 17, 2019 6,807
BTN Fundamental Global Investors, LLC Director Apr 15, 2019 6,633
BTN Fundamental Global Investors, LLC Director Apr 17, 2019 6,807
BTN Fundamental Global Investors, LLC Director Apr 15, 2019 6,633
BTN Fundamental Global Investors, LLC Director Apr 16, 2019 6,781
BTN Fundamental Global Investors, LLC Director Apr 16, 2019 6,781
HJLI BERMAN ROBERT ANDREW Chief Executive Officer Mar 12, 2019 25,000
TREC Quarles Patrick D. President and CEO Apr 16, 2019 24,769
TREC Quarles Patrick D. President and CEO Apr 15, 2019 65,312
TREC Quarles Patrick D. President and CEO Apr 17, 2019 3,941
JPM HOBSON MELLODY L Director Apr 16, 2019 1,998,443
CHAP Strategic Value Partners, LLC 10% Owner Apr 15, 2019 6,257,180
GABC Ramsey Chris A Director Apr 15, 2019 1,395
GABC KLEM U BUTCH Director Apr 15, 2019 3,502
GABC SEGER THOMAS W Director Apr 15, 2019 3,502
TRWH Chatham Asset Management, LLC 10% Owner Apr 16, 2019 198,720
TRWH Chatham Asset Management, LLC 10% Owner Apr 15, 2019 72,076
THMG Jones Eric T CEO Apr 16, 2019 900
NJMC Hayes Monique D Corporate Secretary Apr 15, 2019 3,000
PAOS Lamb William A III Director Apr 16, 2019 60,000
GABC Snowden Raymond Ward Director Apr 15, 2019 2,107
GABC KELLY JASON M Director Apr 15, 2019 1,395
KMI KINDER RICHARD D Executive Chairman Apr 16, 2019 3,014,300
GABC Bawel Zachary W Director Apr 15, 2019 2,107
CPMD Herick Gary J Chief Financial Officer Jan 02, 2019 1,200,000
LIVC Vahabzadeh Amir Director Apr 15, 2019 3,500
RVP SHAW THOMAS J President and CEO Apr 16, 2019 10,065
TPL Horizon Kinetics LLC 10% Owner Apr 16, 2019 37,737
EVBN St. George Mark G. President, The Evans Agency Apr 15, 2019 251
CNBKA EVANGELISTA PAUL A Executive Vice President Apr 16, 2019 175
OPK FROST PHILLIP MD ET AL CEO & Chairman Apr 16, 2019 24,997
BASA Barbera Michael Vito Director Apr 16, 2019 8,550
IEA Layman Andrew Dean Chief Financial Officer Apr 15, 2019 4,900
IEA Roehm John Paul President, CEO and Director Apr 15, 2019 4,900
FARM Levin Easterly Partners LLC 10% Owner Apr 15, 2019 1,930,851
FARM Levin Easterly Partners LLC 10% Owner Apr 12, 2019 9,223,182
VVV Meixelsperger Mary E Chief Financial Officer Apr 15, 2019 140,325
REZI Nefkens Michael G President and CEO Apr 15, 2019 9,989
REZI Aarnes Robert B President, ADI Apr 12, 2019 400
OTEL SOCHET IRA 10% Owner Apr 15, 2019 112,761
MNR LANDY MICHAEL P President and CEO Apr 15, 2019 2,003
HCI Politis Gregory Director Apr 12, 2019 163,620
MNR HERSTIK NEAL Director Apr 15, 2019 10,002
MNR Miller Kevin S. Chief Financial Officer Apr 15, 2019 2,003
NICK MALSON KELLY M CFO Feb 15, 2019 18,799
YORW Snyder Mark S VP- Engineering Apr 16, 2019 776
YORW Snyder Mark S VP- Engineering Apr 15, 2019 305
YORW Poff Matthew E Chief Financial Officer Apr 16, 2019 129
YORW Poff Matthew E Chief Financial Officer Apr 15, 2019 68
YORW Hand Joseph Thomas Chief Operating Officer Apr 15, 2019 34
YORW Hand Joseph Thomas Chief Operating Officer Apr 15, 2019 34
YORW Hand Joseph Thomas Chief Operating Officer Apr 15, 2019 34
YORW Hand Joseph Thomas Chief Operating Officer Apr 16, 2019 4,558
YORW Hand Joseph Thomas Chief Operating Officer Apr 15, 2019 2,238
YORW Colon Natalee VP- Human Resources Apr 16, 2019 517
YORW Colon Natalee VP- Human Resources Apr 15, 2019 68
YORW BRACEY VERNON L VP- Customer Service Apr 15, 2019 102
YORW BRACEY VERNON L VP- Customer Service Apr 16, 2019 517
Next : Last